Time;durP1;ratioP1;P1;durP2;ratioP2;P2;SDS_P1;SDS_P2;PMS_P1;PMS_P2;Temp;Humidity;BMP_temperature;BMP_pressure;BME280_temperature;BME280_humidity;BME280_pressure;Samples;Min_cycle;Max_cycle;Signal;HPM_P1;HPM_P2
2023/04/29 00:00:17;;;;;;;7.85;5.72;;;20.40;99.90;;;;;;5070236;28;20200;-76
2023/04/29 00:02:48;;;;;;;8.30;5.65;;;20.40;99.90;;;;;;5070434;28;20196;-75
2023/04/29 00:05:20;;;;;;;6.95;5.60;;;20.40;99.90;;;;;;5069996;28;20689;-76
2023/04/29 00:07:51;;;;;;;8.70;5.82;;;20.40;99.90;;;;;;5070231;28;20227;-75
2023/04/29 00:10:22;;;;;;;7.57;5.95;;;20.40;99.90;;;;;;5070099;28;20218;-75
2023/04/29 00:12:53;;;;;;;7.57;5.53;;;20.40;99.90;;;;;;5070049;28;20220;-75
2023/04/29 00:15:27;;;;;;;8.80;6.00;;;20.30;99.90;;;;;;5069728;28;20203;-77
2023/04/29 00:17:58;;;;;;;9.27;5.75;;;20.30;99.90;;;;;;5069505;28;20223;-75
2023/04/29 00:20:29;;;;;;;8.95;5.82;;;20.30;99.90;;;;;;5069663;28;20200;-76
2023/04/29 00:23:00;;;;;;;7.13;5.88;;;20.30;99.90;;;;;;5070232;28;20200;-76
2023/04/29 00:25:31;;;;;;;7.65;5.88;;;20.30;99.90;;;;;;5070616;28;20203;-74
2023/04/29 00:28:03;;;;;;;8.88;6.05;;;20.40;99.90;;;;;;5070344;28;20621;-75
2023/04/29 00:30:37;;;;;;;7.03;6.05;;;20.30;99.90;;;;;;5070462;28;20206;-75
2023/04/29 00:33:08;;;;;;;7.25;5.75;;;20.30;99.90;;;;;;5069831;28;20199;-75
2023/04/29 00:35:39;;;;;;;12.80;6.95;;;20.30;99.90;;;;;;5069826;28;20196;-76
2023/04/29 00:38:10;;;;;;;7.97;5.72;;;20.30;99.90;;;;;;5070032;28;20196;-76
2023/04/29 00:40:42;;;;;;;8.35;4.65;;;20.30;99.90;;;;;;5069882;28;20222;-76
2023/04/29 00:43:13;;;;;;;5.75;4.20;;;20.20;99.90;;;;;;5069801;28;20192;-75
2023/04/29 00:45:46;;;;;;;6.07;4.38;;;20.20;99.90;;;;;;5069951;28;20195;-76
2023/04/29 00:48:17;;;;;;;6.47;4.93;;;20.20;99.90;;;;;;5069857;28;20220;-74
2023/04/29 00:50:49;;;;;;;6.95;4.50;;;20.30;99.90;;;;;;5069589;28;20204;-76
2023/04/29 00:53:21;;;;;;;7.72;4.65;;;20.30;99.90;;;;;;5069925;28;20200;-76
2023/04/29 00:55:54;;;;;;;8.32;5.18;;;20.30;99.90;;;;;;5070386;28;20199;-76
2023/04/29 00:58:31;;;;;;;6.13;4.95;;;20.40;99.90;;;;;;5069790;28;20196;-75
2023/04/29 01:01:05;;;;;;;6.80;4.63;;;20.30;99.90;;;;;;5070136;28;20215;-76
2023/04/29 01:03:36;;;;;;;7.53;5.50;;;20.30;99.90;;;;;;5073139;28;20566;-75
2023/04/29 01:06:19;;;;;;;7.22;4.93;;;20.30;99.90;;;;;;5073069;28;20211;-75
2023/04/29 01:09:03;;;;;;;8.23;5.10;;;20.20;99.90;;;;;;5073285;28;20231;-75
2023/04/29 01:11:41;;;;;;;9.65;5.57;;;20.20;99.90;;;;;;5073796;28;20195;-75
2023/04/29 01:14:12;;;;;;;7.00;5.00;;;20.30;99.90;;;;;;5073270;28;20212;-75
2023/04/29 01:16:52;;;;;;;7.75;4.88;;;20.30;99.90;;;;;;5073157;28;20223;-75
2023/04/29 01:19:49;;;;;;;8.88;5.15;;;20.40;99.90;;;;;;5072808;28;20195;-76
2023/04/29 01:22:20;;;;;;;10.23;5.70;;;20.40;99.90;;;;;;5072867;28;20314;-76
2023/04/29 01:24:53;;;;;;;11.25;6.13;;;20.50;99.90;;;;;;5072854;28;20239;-76
2023/04/29 01:27:31;;;;;;;9.73;6.13;;;20.40;99.90;;;;;;5073094;28;20196;-76
2023/04/29 01:30:10;;;;;;;8.98;5.32;;;20.40;99.90;;;;;;5071862;28;20200;-76
2023/04/29 01:32:50;;;;;;;8.75;5.60;;;20.40;99.90;;;;;;5073397;28;20222;-75
2023/04/29 01:35:32;;;;;;;7.85;5.93;;;20.40;99.90;;;;;;5073523;28;20195;-75
2023/04/29 01:38:10;;;;;;;10.50;5.40;;;20.30;99.90;;;;;;5076294;28;20560;-75
2023/04/29 01:40:55;;;;;;;7.47;4.93;;;20.30;99.90;;;;;;5076215;28;20196;-76
2023/04/29 01:43:30;;;;;;;6.05;4.15;;;20.30;99.90;;;;;;5072966;28;20214;-77
2023/04/29 01:46:03;;;;;;;8.45;4.43;;;20.20;99.90;;;;;;5073165;28;20302;-76
2023/04/29 01:48:34;;;;;;;8.00;5.05;;;20.10;99.90;;;;;;5073530;28;20195;-75
2023/04/29 01:51:06;;;;;;;7.05;4.68;;;20.10;99.90;;;;;;5073005;28;20211;-75
2023/04/29 01:53:39;;;;;;;8.82;5.05;;;20.10;99.90;;;;;;5072705;28;20206;-76
2023/04/29 01:56:12;;;;;;;6.07;5.13;;;20.00;99.90;;;;;;5072456;28;20203;-74
2023/04/29 01:58:46;;;;;;;8.95;4.97;;;20.00;99.90;;;;;;5072421;28;20211;-75
2023/04/29 02:01:17;;;;;;;7.28;4.00;;;20.00;99.90;;;;;;5072747;28;20737;-75
2023/04/29 02:03:48;;;;;;;6.88;3.97;;;20.00;99.90;;;;;;5072842;28;20204;-75
2023/04/29 02:06:19;;;;;;;6.65;3.60;;;20.00;99.90;;;;;;5072434;28;20196;-75
2023/04/29 02:08:50;;;;;;;5.75;3.47;;;20.00;99.90;;;;;;5072207;28;20227;-76
2023/04/29 02:11:24;;;;;;;5.47;3.53;;;20.00;99.90;;;;;;5072229;28;20667;-75
2023/04/29 02:13:55;;;;;;;4.30;2.72;;;20.00;99.90;;;;;;5070987;28;20199;-75
2023/04/29 02:16:26;;;;;;;3.13;2.30;;;19.90;99.90;;;;;;5072428;28;20224;-76
2023/04/29 02:18:57;;;;;;;5.53;2.60;;;19.90;99.90;;;;;;5072161;28;20204;-75
2023/04/29 02:21:31;;;;;;;4.82;2.92;;;19.90;99.90;;;;;;5072349;28;20235;-75
2023/04/29 02:24:02;;;;;;;6.18;2.92;;;19.90;99.90;;;;;;5072769;28;20206;-75
2023/04/29 02:26:37;;;;;;;4.47;2.17;;;19.90;99.90;;;;;;5072121;28;20219;-76
2023/04/29 02:29:08;;;;;;;4.55;2.20;;;20.00;99.90;;;;;;5072039;28;20199;-75
2023/04/29 02:31:39;;;;;;;3.78;2.25;;;20.00;99.90;;;;;;5071612;28;20286;-75
2023/04/29 02:34:10;;;;;;;4.68;1.70;;;19.90;99.90;;;;;;5072203;28;20196;-75
2023/04/29 02:36:41;;;;;;;4.40;2.00;;;19.70;99.90;;;;;;5072177;28;20192;-75
2023/04/29 02:39:15;;;;;;;5.93;2.17;;;19.70;99.90;;;;;;5071836;28;20222;-75
2023/04/29 02:41:48;;;;;;;4.50;2.13;;;19.60;99.90;;;;;;5071967;28;20306;-75
2023/04/29 02:44:19;;;;;;;3.65;1.95;;;19.60;99.90;;;;;;5071753;28;20713;-75
2023/04/29 02:46:50;;;;;;;4.80;2.17;;;19.70;99.90;;;;;;5072477;28;20202;-76
2023/04/29 02:49:21;;;;;;;4.80;2.35;;;19.70;99.90;;;;;;5071431;28;20211;-75
2023/04/29 02:51:53;;;;;;;9.05;2.58;;;19.80;99.90;;;;;;5072070;28;20725;-75
2023/04/29 02:54:24;;;;;;;3.97;3.08;;;19.70;99.90;;;;;;5071777;28;20678;-75
2023/04/29 02:56:57;;;;;;;5.22;2.08;;;19.50;99.90;;;;;;5071851;28;20199;-75
2023/04/29 02:59:28;;;;;;;3.13;2.50;;;19.50;99.90;;;;;;5071742;28;20289;-75
2023/04/29 03:02:00;;;;;;;3.55;2.13;;;19.50;99.90;;;;;;5071410;28;20686;-74
2023/04/29 03:04:31;;;;;;;4.95;2.22;;;19.60;99.90;;;;;;5071730;28;20191;-75
2023/04/29 03:07:03;;;;;;;4.78;2.33;;;19.50;99.90;;;;;;5071516;28;20211;-75
2023/04/29 03:09:34;;;;;;;5.13;3.38;;;19.50;99.90;;;;;;5071631;28;20195;-74
2023/04/29 03:12:07;;;;;;;3.42;1.73;;;19.40;99.90;;;;;;5071187;28;20658;-76
2023/04/29 03:14:39;;;;;;;2.63;1.65;;;19.40;99.90;;;;;;5067229;28;20218;-76
2023/04/29 03:17:10;;;;;;;4.65;2.42;;;19.50;99.90;;;;;;5068717;28;20203;-75
2023/04/29 03:19:41;;;;;;;3.95;2.47;;;19.50;99.90;;;;;;5066368;28;20200;-76
2023/04/29 03:22:12;;;;;;;4.78;2.20;;;19.50;99.90;;;;;;5069249;28;20227;-74
2023/04/29 03:24:43;;;;;;;2.28;1.52;;;19.60;99.90;;;;;;5064625;28;20238;-75
2023/04/29 03:27:16;;;;;;;4.32;2.05;;;19.60;99.90;;;;;;5070416;28;20200;-74
2023/04/29 03:29:48;;;;;;;2.95;1.73;;;19.70;99.90;;;;;;5071397;28;20196;-75
2023/04/29 03:32:19;;;;;;;2.70;1.98;;;19.70;99.90;;;;;;5070457;28;20222;-76
2023/04/29 03:34:50;;;;;;;2.28;2.08;;;19.70;99.90;;;;;;5070794;28;20196;-75
2023/04/29 03:37:21;;;;;;;4.63;2.20;;;19.70;99.90;;;;;;5071343;28;20212;-74
2023/04/29 03:39:53;;;;;;;3.50;1.90;;;19.80;99.90;;;;;;5070501;28;20677;-76
2023/04/29 03:42:26;;;;;;;3.13;2.00;;;19.80;99.90;;;;;;5070393;28;20615;-75
2023/04/29 03:44:57;;;;;;;4.10;2.00;;;19.80;99.90;;;;;;5070869;28;20204;-76
2023/04/29 03:47:28;;;;;;;2.80;1.80;;;19.80;99.90;;;;;;5070437;28;20196;-75
2023/04/29 03:49:59;;;;;;;4.53;2.45;;;19.70;99.90;;;;;;5070465;28;20482;-76
2023/04/29 03:52:30;;;;;;;4.22;2.70;;;19.80;99.90;;;;;;5070813;28;20244;-77
2023/04/29 03:55:01;;;;;;;3.10;2.45;;;19.90;99.90;;;;;;5070996;28;20206;-76
2023/04/29 03:57:34;;;;;;;6.82;2.97;;;19.90;99.90;;;;;;5070822;28;20215;-75
2023/04/29 04:00:05;;;;;;;7.50;2.72;;;19.90;99.90;;;;;;5070844;28;20306;-75
2023/04/29 04:02:36;;;;;;;7.10;2.60;;;20.00;99.90;;;;;;5070226;28;20224;-75
2023/04/29 04:05:08;;;;;;;3.65;2.55;;;19.90;99.90;;;;;;5070141;28;20200;-76
2023/04/29 04:07:39;;;;;;;7.32;3.20;;;20.00;99.90;;;;;;5070032;28;20281;-75
2023/04/29 04:10:10;;;;;;;5.88;3.00;;;20.00;99.90;;;;;;5070095;28;20654;-76
2023/04/29 04:12:44;;;;;;;6.32;2.15;;;19.90;99.90;;;;;;5070082;28;21608;-75
2023/04/29 04:15:15;;;;;;;4.25;2.40;;;19.80;99.90;;;;;;5070153;28;20651;-75
2023/04/29 04:17:47;;;;;;;3.83;2.00;;;19.80;99.90;;;;;;5070116;28;20567;-75
2023/04/29 04:20:18;;;;;;;5.40;2.83;;;19.80;99.90;;;;;;5049912;28;20197;-76
2023/04/29 04:22:49;;;;;;;5.53;2.70;;;19.80;99.90;;;;;;5064325;28;20679;-76
2023/04/29 04:25:20;;;;;;;4.70;2.90;;;19.70;99.90;;;;;;5070478;28;20192;-76
2023/04/29 04:27:53;;;;;;;2.63;2.08;;;19.80;99.90;;;;;;5070107;28;20192;-75
2023/04/29 04:30:24;;;;;;;4.68;2.55;;;19.80;99.90;;;;;;5070197;28;20196;-76
2023/04/29 04:32:55;;;;;;;4.80;2.58;;;19.90;99.90;;;;;;5068671;28;20200;-75
2023/04/29 04:35:26;;;;;;;3.78;2.47;;;19.90;99.90;;;;;;5067171;28;20215;-75
2023/04/29 04:37:57;;;;;;;5.90;3.55;;;20.00;99.90;;;;;;5069648;28;20223;-75
2023/04/29 04:40:28;;;;;;;8.48;4.60;;;20.00;99.90;;;;;;5071549;28;20192;-75
2023/04/29 04:43:01;;;;;;;5.88;3.75;;;19.90;99.90;;;;;;5070519;28;20276;-75
2023/04/29 04:45:33;;;;;;;5.15;3.20;;;19.90;99.90;;;;;;5074234;28;20706;-76
2023/04/29 04:48:04;;;;;;;5.55;3.65;;;19.90;99.90;;;;;;5071329;28;20200;-77
2023/04/29 04:50:35;;;;;;;7.15;4.63;;;19.90;99.90;;;;;;5069443;28;20713;-78
2023/04/29 04:53:06;;;;;;;5.70;4.20;;;19.90;99.90;;;;;;5086627;28;20195;-76
2023/04/29 04:55:37;;;;;;;6.82;4.32;;;19.90;99.90;;;;;;5071079;28;20219;-77
2023/04/29 04:58:10;;;;;;;5.45;4.18;;;20.00;99.90;;;;;;5071708;28;20693;-76
2023/04/29 05:00:46;;;;;;;7.75;5.25;;;19.90;99.90;;;;;;5070996;28;20243;-76
2023/04/29 05:03:17;;;;;;;5.47;3.97;;;20.00;99.90;;;;;;5071762;28;20215;-77
2023/04/29 05:05:48;;;;;;;5.68;4.00;;;20.00;99.90;;;;;;5065013;28;20223;-77
2023/04/29 05:08:19;;;;;;;3.80;3.40;;;19.80;99.90;;;;;;5070537;28;20228;-76
2023/04/29 05:10:50;;;;;;;6.68;4.30;;;19.90;99.90;;;;;;5072771;28;20670;-76
2023/04/29 05:13:24;;;;;;;4.15;3.20;;;19.70;99.90;;;;;;5073402;28;20287;-76
2023/04/29 05:15:55;;;;;;;4.65;3.20;;;19.70;99.90;;;;;;5072613;28;20227;-76
2023/04/29 05:18:26;;;;;;;8.05;4.20;;;19.80;99.90;;;;;;5067590;28;20703;-76
2023/04/29 05:20:58;;;;;;;5.53;4.03;;;19.90;99.90;;;;;;5071296;28;20195;-76
2023/04/29 05:23:29;;;;;;;6.75;4.45;;;20.00;99.90;;;;;;5073041;28;20231;-75
2023/04/29 05:26:01;;;;;;;5.20;3.78;;;20.00;99.90;;;;;;5071725;28;20220;-76
2023/04/29 05:28:34;;;;;;;7.18;3.60;;;20.00;99.90;;;;;;5072263;28;20208;-76
2023/04/29 05:31:05;;;;;;;5.03;3.40;;;20.00;99.90;;;;;;5072865;28;20196;-77
2023/04/29 05:33:36;;;;;;;4.90;3.42;;;20.10;99.90;;;;;;5072355;28;20192;-77
2023/04/29 05:36:07;;;;;;;5.68;3.63;;;20.10;99.90;;;;;;5067523;28;20663;-77
2023/04/29 05:38:38;;;;;;;4.95;3.85;;;20.00;99.90;;;;;;5063868;28;20566;-77
2023/04/29 05:41:09;;;;;;;4.63;3.72;;;20.00;99.90;;;;;;5068615;28;20223;-78
2023/04/29 05:43:43;;;;;;;6.25;3.80;;;20.00;99.90;;;;;;5069540;28;20573;-78
2023/04/29 05:46:14;;;;;;;4.55;3.00;;;19.90;99.90;;;;;;5063241;28;20682;-77
2023/04/29 05:48:45;;;;;;;4.78;3.22;;;20.00;99.90;;;;;;5057637;28;20211;-77
2023/04/29 05:51:16;;;;;;;5.20;3.20;;;19.90;99.90;;;;;;5071248;28;20218;-78
2023/04/29 05:53:47;;;;;;;5.68;3.00;;;19.90;99.90;;;;;;5072760;28;20567;-78
2023/04/29 05:56:21;;;;;;;5.97;3.05;;;20.00;99.90;;;;;;5069280;28;20224;-78
2023/04/29 05:58:54;;;;;;;5.00;2.92;;;20.00;99.90;;;;;;5070396;28;20324;-78
2023/04/29 06:01:25;;;;;;;6.15;3.20;;;19.90;99.90;;;;;;5066070;28;20232;-79
2023/04/29 06:03:56;;;;;;;6.55;2.88;;;19.90;99.90;;;;;;5067577;28;20226;-80
2023/04/29 06:06:27;;;;;;;5.43;3.45;;;19.90;99.90;;;;;;5070127;28;20227;-79
2023/04/29 06:08:59;;;;;;;5.93;3.20;;;19.90;99.90;;;;;;5071285;28;20228;-77
2023/04/29 06:11:30;;;;;;;5.57;2.97;;;19.90;99.90;;;;;;5070392;28;20197;-78
2023/04/29 06:14:03;;;;;;;3.45;2.88;;;19.80;99.90;;;;;;5069918;28;20270;-79
2023/04/29 06:16:34;;;;;;;5.95;3.35;;;19.80;99.90;;;;;;5062263;28;20219;-78
2023/04/29 06:19:05;;;;;;;5.13;3.05;;;19.80;99.90;;;;;;5070555;28;20215;-78
2023/04/29 06:21:37;;;;;;;4.20;3.28;;;19.90;99.90;;;;;;5069842;28;20192;-80
2023/04/29 06:24:08;;;;;;;6.22;3.42;;;19.90;99.90;;;;;;5071395;28;20228;-78
2023/04/29 06:26:39;;;;;;;6.10;4.25;;;19.90;99.90;;;;;;5070264;28;20613;-80
2023/04/29 06:29:13;;;;;;;5.45;3.83;;;19.90;99.90;;;;;;5069047;28;20219;-78
2023/04/29 06:31:44;;;;;;;6.82;4.28;;;19.90;99.90;;;;;;5072237;28;20226;-78
2023/04/29 06:34:15;;;;;;;6.15;4.10;;;19.90;99.90;;;;;;5070315;28;20228;-78
2023/04/29 06:36:46;;;;;;;6.07;4.15;;;19.90;99.90;;;;;;5067585;28;20196;-78
2023/04/29 06:39:17;;;;;;;7.68;4.85;;;19.90;99.90;;;;;;5069486;28;20575;-78
2023/04/29 06:41:48;;;;;;;5.70;4.50;;;19.80;99.90;;;;;;5070892;28;20196;-79
2023/04/29 06:44:21;;;;;;;5.32;4.10;;;19.80;99.90;;;;;;5069855;28;20223;-78
2023/04/29 06:46:52;;;;;;;6.82;4.30;;;19.70;99.90;;;;;;5069495;28;20204;-79
2023/04/29 06:49:23;;;;;;;5.88;4.03;;;19.80;99.90;;;;;;5067915;28;20563;-80
2023/04/29 06:51:54;;;;;;;6.97;4.20;;;19.70;99.90;;;;;;5069224;28;20255;-80
2023/04/29 06:54:27;;;;;;;4.57;3.70;;;19.70;99.90;;;;;;5070890;28;20196;-80
2023/04/29 06:56:59;;;;;;;6.70;4.10;;;19.60;99.90;;;;;;5068954;28;20203;-78
2023/04/29 06:59:32;;;;;;;4.38;3.30;;;19.60;99.90;;;;;;5069145;28;20269;-78
2023/04/29 07:02:03;;;;;;;5.93;3.33;;;19.50;99.90;;;;;;5070267;28;20231;-79
2023/04/29 07:04:36;;;;;;;5.28;3.45;;;19.50;99.90;;;;;;5068382;28;20701;-79
2023/04/29 07:07:07;;;;;;;5.45;3.33;;;19.50;99.90;;;;;;5069786;28;20271;-78
2023/04/29 07:09:38;;;;;;;4.63;3.42;;;19.60;99.90;;;;;;5070424;28;20192;-78
2023/04/29 07:12:09;;;;;;;5.22;3.45;;;19.60;99.90;;;;;;5069915;28;20196;-79
2023/04/29 07:14:42;;;;;;;8.13;3.55;;;19.60;99.90;;;;;;5068050;28;20720;-78
2023/04/29 07:17:15;;;;;;;6.57;3.15;;;19.50;99.90;;;;;;5072117;28;20216;-77
2023/04/29 07:19:46;;;;;;;6.85;3.25;;;19.60;99.90;;;;;;5069656;28;20622;-77
2023/04/29 07:22:17;;;;;;;8.52;4.28;;;19.60;99.90;;;;;;5069435;28;20562;-79
2023/04/29 07:24:48;;;;;;;9.10;4.07;;;19.70;99.90;;;;;;5070796;28;20590;-78
2023/04/29 07:27:19;;;;;;;6.82;4.18;;;19.80;99.90;;;;;;5070778;28;20207;-78
2023/04/29 07:29:53;;;;;;;7.18;4.10;;;19.70;99.90;;;;;;5071496;28;20223;-78
2023/04/29 07:32:24;;;;;;;6.05;3.63;;;19.70;99.90;;;;;;5070352;28;20199;-78
2023/04/29 07:34:56;;;;;;;5.38;3.75;;;19.70;99.90;;;;;;5065345;28;20223;-78
2023/04/29 07:37:27;;;;;;;7.40;4.28;;;19.70;99.90;;;;;;5067773;28;20203;-77
2023/04/29 07:39:58;;;;;;;7.88;4.13;;;19.70;99.90;;;;;;5068001;28;20199;-77
2023/04/29 07:42:29;;;;;;;9.23;4.20;;;19.70;99.90;;;;;;5067249;28;20200;-78
2023/04/29 07:45:03;;;;;;;7.20;3.97;;;19.70;99.90;;;;;;5069540;28;20222;-78
2023/04/29 07:47:34;;;;;;;6.75;4.78;;;19.60;99.90;;;;;;5069808;28;20245;-77
2023/04/29 07:50:05;;;;;;;8.70;4.72;;;19.50;99.90;;;;;;5070646;28;20657;-77
2023/04/29 07:52:37;;;;;;;7.75;4.68;;;19.50;99.90;;;;;;5070373;28;20190;-77
2023/04/29 07:55:10;;;;;;;12.50;7.20;;;19.40;99.90;;;;;;5070126;28;20200;-78
2023/04/29 07:57:41;;;;;;;8.82;5.00;;;19.40;99.90;;;;;;5064067;28;20572;-77
2023/04/29 08:00:15;;;;;;;8.00;5.47;;;19.40;99.90;;;;;;5070901;28;20202;-77
2023/04/29 08:02:46;;;;;;;7.57;4.95;;;19.30;99.90;;;;;;5069452;28;20207;-76
2023/04/29 08:05:17;;;;;;;7.47;4.50;;;19.30;99.90;;;;;;5070912;28;20187;-77
2023/04/29 08:07:49;;;;;;;9.90;5.03;;;19.30;99.90;;;;;;5069323;28;20318;-79
2023/04/29 08:10:23;;;;;;;9.38;4.80;;;19.30;99.90;;;;;;5068843;28;20250;-78
2023/04/29 08:12:54;;;;;;;7.75;4.15;;;19.30;99.90;;;;;;5059797;28;20222;-78
2023/04/29 08:15:28;;;;;;;23.45;11.35;;;19.30;99.90;;;;;;5068003;28;20215;-77
2023/04/29 08:17:59;;;;;;;8.23;5.10;;;19.30;99.90;;;;;;5070276;28;20278;-78
2023/04/29 08:20:30;;;;;;;8.13;4.45;;;19.20;99.90;;;;;;5070801;28;20191;-78
2023/04/29 08:23:05;;;;;;;7.68;4.35;;;19.30;99.90;;;;;;5068483;28;20203;-77
2023/04/29 08:25:36;;;;;;;8.82;4.50;;;19.30;99.90;;;;;;5059633;28;20591;-78
2023/04/29 08:28:07;;;;;;;6.97;4.20;;;19.30;99.90;;;;;;5067130;28;20690;-78
2023/04/29 08:30:41;;;;;;;6.93;3.83;;;19.30;99.90;;;;;;5069198;28;20223;-78
2023/04/29 08:33:13;;;;;;;8.07;3.72;;;19.40;99.90;;;;;;5067481;28;20215;-78
2023/04/29 08:35:44;;;;;;;6.28;2.83;;;19.40;99.90;;;;;;5069680;28;20220;-77
2023/04/29 08:38:15;;;;;;;4.53;2.47;;;19.40;99.90;;;;;;5064448;28;20226;-77
2023/04/29 08:40:47;;;;;;;10.38;3.88;;;19.40;99.90;;;;;;5067839;28;20291;-77
2023/04/29 08:43:18;;;;;;;7.85;2.67;;;19.40;99.90;;;;;;5070033;28;20685;-78
2023/04/29 08:45:52;;;;;;;8.02;3.10;;;19.50;99.90;;;;;;5067850;28;20215;-77
2023/04/29 08:48:24;;;;;;;9.35;2.70;;;19.50;99.90;;;;;;5066781;28;20579;-78
2023/04/29 08:50:57;;;;;;;7.07;3.50;;;19.50;99.90;;;;;;5071258;28;20226;-78
2023/04/29 08:53:28;;;;;;;9.57;3.25;;;19.50;99.90;;;;;;5067423;28;20919;-77
2023/04/29 08:56:02;;;;;;;11.20;3.20;;;19.40;99.90;;;;;;5068343;28;20219;-77
2023/04/29 08:58:40;;;;;;;6.80;2.65;;;19.50;99.90;;;;;;5071097;28;20204;-77
2023/04/29 09:01:14;;;;;;;11.77;4.03;;;19.50;99.90;;;;;;5063092;28;20219;-77
2023/04/29 09:03:52;;;;;;;11.73;4.47;;;19.50;99.90;;;;;;5057172;28;20220;-77
2023/04/29 09:06:24;;;;;;;11.38;3.55;;;19.50;99.90;;;;;;5065357;28;20285;-76
2023/04/29 09:08:55;;;;;;;6.35;3.00;;;19.50;99.90;;;;;;5059280;28;20218;-78
2023/04/29 09:11:26;;;;;;;12.25;4.07;;;19.50;99.90;;;;;;5068028;28;20644;-78
2023/04/29 09:14:03;;;;;;;15.25;4.60;;;19.50;99.90;;;;;;5066890;28;20220;-78
2023/04/29 09:16:37;;;;;;;13.90;4.20;;;19.50;99.90;;;;;;5059507;28;20212;-77
2023/04/29 09:19:08;;;;;;;13.45;4.55;;;19.50;99.90;;;;;;5059236;28;20224;-77
2023/04/29 09:21:39;;;;;;;12.00;3.50;;;19.50;99.90;;;;;;5068277;28;20662;-77
2023/04/29 09:24:10;;;;;;;8.30;2.28;;;19.50;99.90;;;;;;5063326;28;20235;-77
2023/04/29 09:26:45;;;;;;;8.75;2.15;;;19.60;99.90;;;;;;5072177;28;20200;-78
2023/04/29 09:29:17;;;;;;;8.15;2.08;;;19.60;99.90;;;;;;5067171;28;20220;-77
2023/04/29 09:31:53;;;;;;;12.90;3.92;;;19.60;99.90;;;;;;5054421;28;20691;-79
2023/04/29 09:34:36;;;;;;;8.77;2.13;;;19.60;99.90;;;;;;5064411;28;20228;-76
2023/04/29 09:37:24;;;;;;;11.18;3.38;;;19.70;99.90;;;;;;5066240;28;20206;-77
2023/04/29 09:39:56;;;;;;;7.60;3.05;;;19.70;99.90;;;;;;5067219;28;20219;-76
2023/04/29 09:42:27;;;;;;;11.73;4.00;;;19.70;99.90;;;;;;5071264;28;20203;-76
2023/04/29 09:44:58;;;;;;;11.13;3.50;;;19.70;99.90;;;;;;5069727;28;20238;-76
2023/04/29 09:47:35;;;;;;;6.25;2.50;;;19.70;99.90;;;;;;5069371;28;20207;-76
2023/04/29 09:50:15;;;;;;;8.45;2.42;;;19.60;99.90;;;;;;5071705;28;20191;-77
2023/04/29 09:52:46;;;;;;;9.00;3.50;;;19.50;99.90;;;;;;5072147;28;20342;-77
2023/04/29 09:55:18;;;;;;;9.32;3.70;;;19.60;99.90;;;;;;5079108;28;20200;-77
2023/04/29 09:57:53;;;;;;;12.38;5.70;;;19.50;99.90;;;;;;5076597;28;20195;-80
2023/04/29 10:00:24;;;;;;;7.50;2.20;;;19.50;99.90;;;;;;5075145;28;20223;-78
2023/04/29 10:03:00;;;;;;;7.68;1.75;;;19.50;99.90;;;;;;5083923;28;20211;-76
2023/04/29 10:05:32;;;;;;;11.02;3.58;;;19.40;99.90;;;;;;5081621;28;20290;-77
2023/04/29 10:08:05;;;;;;;8.75;3.47;;;19.40;99.90;;;;;;5062495;28;20239;-77
2023/04/29 10:10:36;;;;;;;9.27;2.70;;;19.30;99.90;;;;;;5074625;28;20550;-77
2023/04/29 10:13:08;;;;;;;14.50;7.57;;;19.30;99.90;;;;;;5059697;28;20196;-76
2023/04/29 10:15:46;;;;;;;10.20;4.40;;;19.30;99.90;;;;;;5077825;28;20215;-78
2023/04/29 10:18:29;;;;;;;6.47;1.83;;;19.30;99.90;;;;;;5079791;28;20667;-77
2023/04/29 10:21:02;;;;;;;11.10;2.80;;;19.30;99.90;;;;;;5078204;28;20211;-75
2023/04/29 10:23:35;;;;;;;8.02;2.60;;;19.30;99.90;;;;;;5081255;28;20198;-76
2023/04/29 10:26:07;;;;;;;10.43;3.28;;;19.10;99.90;;;;;;5077259;28;20210;-77
2023/04/29 10:28:46;;;;;;;13.63;3.92;;;19.00;99.90;;;;;;5080363;28;20273;-78
2023/04/29 10:31:27;;;;;;;10.52;3.60;;;18.90;99.90;;;;;;5076381;28;20287;-77
2023/04/29 10:34:02;;;;;;;10.90;3.90;;;18.80;99.90;;;;;;5062758;28;20200;-77
2023/04/29 10:36:35;;;;;;;6.22;2.35;;;18.70;99.90;;;;;;5077294;28;20536;-77
2023/04/29 10:39:10;;;;;;;10.40;3.53;;;18.70;99.90;;;;;;5078835;28;20666;-76
2023/04/29 10:41:50;;;;;;;8.43;4.28;;;18.60;99.90;;;;;;5078429;28;20188;-79
2023/04/29 10:44:23;;;;;;;7.57;4.28;;;18.60;99.90;;;;;;5082555;28;20254;-77
2023/04/29 10:47:22;;;;;;;7.32;2.40;;;18.60;99.90;;;;;;5081482;28;20222;-78
2023/04/29 10:50:12;;;;;;;9.48;3.83;;;18.70;99.90;;;;;;5077630;28;20216;-75
2023/04/29 10:52:58;;;;;;;7.82;2.78;;;18.70;99.90;;;;;;5076878;28;20186;-76
2023/04/29 10:55:29;;;;;;;6.32;2.35;;;18.70;99.90;;;;;;5078649;28;20224;-76
2023/04/29 10:58:02;;;;;;;5.70;2.20;;;18.70;99.90;;;;;;5082362;28;20238;-76
2023/04/29 11:00:36;;;;;;;5.65;1.98;;;18.70;99.90;;;;;;5081997;28;20453;-78
2023/04/29 11:03:09;;;;;;;4.88;1.77;;;18.80;99.90;;;;;;5069346;28;20221;-77
2023/04/29 11:05:44;;;;;;;3.45;1.35;;;18.80;99.90;;;;;;5070948;28;20276;-76
2023/04/29 11:08:25;;;;;;;5.65;2.20;;;18.80;99.90;;;;;;5075088;28;20303;-76
2023/04/29 11:11:02;;;;;;;5.03;1.45;;;18.70;99.90;;;;;;5080911;28;20273;-77
2023/04/29 11:13:39;;;;;;;3.63;1.33;;;18.70;99.90;;;;;;5079846;28;20200;-77
2023/04/29 11:16:11;;;;;;;3.60;1.30;;;18.70;99.90;;;;;;5074853;28;20635;-77
2023/04/29 11:19:07;;;;;;;6.40;2.28;;;18.70;99.90;;;;;;5071959;28;20225;-77
2023/04/29 11:21:41;;;;;;;7.57;1.75;;;18.80;99.90;;;;;;5067109;28;20207;-77
2023/04/29 11:24:14;;;;;;;5.22;1.70;;;18.80;99.90;;;;;;5069358;28;20228;-76
2023/04/29 11:26:45;;;;;;;3.80;1.20;;;18.80;99.90;;;;;;5071696;28;20633;-77
2023/04/29 11:29:17;;;;;;;4.32;1.45;;;18.80;99.90;;;;;;5072914;28;20257;-78
2023/04/29 11:31:48;;;;;;;4.32;1.50;;;18.80;99.90;;;;;;5077812;28;20196;-76
2023/04/29 11:34:26;;;;;;;4.30;1.20;;;18.70;99.90;;;;;;5061212;28;20651;-77
2023/04/29 11:36:59;;;;;;;3.30;1.38;;;18.70;99.90;;;;;;5072756;28;20200;-77
2023/04/29 11:39:30;;;;;;;3.13;1.13;;;18.70;99.90;;;;;;5071475;28;20660;-77
2023/04/29 11:42:07;;;;;;;4.30;1.30;;;18.70;99.90;;;;;;5074420;28;20211;-77
2023/04/29 11:44:38;;;;;;;3.35;1.00;;;18.70;99.90;;;;;;5072498;28;20215;-76
2023/04/29 11:47:10;;;;;;;3.22;1.17;;;18.80;99.90;;;;;;5055256;28;20234;-77
2023/04/29 11:49:41;;;;;;;2.85;1.08;;;18.80;99.90;;;;;;5063305;28;20211;-76
2023/04/29 11:52:15;;;;;;;2.58;1.10;;;18.80;99.90;;;;;;5069812;28;20231;-76
2023/04/29 11:54:47;;;;;;;5.60;1.80;;;18.70;99.90;;;;;;5072103;28;20204;-76
2023/04/29 11:57:18;;;;;;;2.30;1.00;;;18.70;99.90;;;;;;5070412;28;20203;-77
2023/04/29 11:59:50;;;;;;;2.00;0.90;;;18.60;99.90;;;;;;5071969;28;20192;-76
2023/04/29 12:02:24;;;;;;;5.47;1.00;;;18.60;99.90;;;;;;5071925;28;20192;-76
2023/04/29 12:04:56;;;;;;;2.20;0.90;;;18.60;99.90;;;;;;5071360;28;20276;-76
2023/04/29 12:07:30;;;;;;;3.28;1.00;;;18.60;99.90;;;;;;5075807;28;20239;-83
2023/04/29 12:10:01;;;;;;;3.08;0.98;;;18.40;99.90;;;;;;5071019;28;20197;-83
2023/04/29 12:12:35;;;;;;;2.35;0.80;;;18.40;99.90;;;;;;5063661;28;20197;-83
2023/04/29 12:15:08;;;;;;;3.70;1.92;;;18.50;99.90;;;;;;5060291;28;20192;-85
2023/04/29 12:17:40;;;;;;;3.42;1.98;;;18.60;99.90;;;;;;5074234;28;20231;-85
2023/04/29 12:20:12;;;;;;;2.90;1.30;;;18.60;99.90;;;;;;5070864;28;20199;-85
2023/04/29 12:22:49;;;;;;;2.17;1.20;;;18.70;99.90;;;;;;5078081;28;20261;-85
2023/04/29 12:25:21;;;;;;;3.63;1.20;;;18.70;99.90;;;;;;5076661;28;20219;-85
2023/04/29 12:27:53;;;;;;;4.00;1.10;;;18.70;99.90;;;;;;5075454;28;20223;-85
2023/04/29 12:30:31;;;;;;;2.75;1.10;;;18.70;99.90;;;;;;5074158;28;20566;-84
2023/04/29 12:33:05;;;;;;;2.85;1.60;;;18.70;99.90;;;;;;5084275;28;20203;-85
2023/04/29 12:35:36;;;;;;;4.38;2.03;;;18.60;99.90;;;;;;5086216;28;20208;-85
2023/04/29 12:38:14;;;;;;;5.20;2.20;;;18.50;99.90;;;;;;5076729;28;20631;-87
2023/04/29 12:40:47;;;;;;;6.07;2.00;;;18.50;99.90;;;;;;5057964;28;20204;-85
2023/04/29 12:43:19;;;;;;;9.20;2.35;;;18.40;99.90;;;;;;5063112;28;20203;-84
2023/04/29 12:45:50;;;;;;;7.63;1.83;;;18.30;99.90;;;;;;5075953;28;20226;-84
2023/04/29 12:48:21;;;;;;;6.07;1.80;;;18.10;99.90;;;;;;5074782;28;20199;-83
2023/04/29 12:50:58;;;;;;;6.60;1.80;;;17.90;99.90;;;;;;5072298;28;20250;-85
2023/04/29 12:53:33;;;;;;;5.60;1.83;;;17.80;99.90;;;;;;5075959;28;20199;-84
2023/04/29 12:56:06;;;;;;;3.05;1.00;;;17.80;99.90;;;;;;5073835;28;20216;-81
2023/04/29 12:58:37;;;;;;;3.20;0.90;;;17.80;99.90;;;;;;5082134;28;20196;-85
2023/04/29 13:01:10;;;;;;;2.28;0.82;;;17.60;99.90;;;;;;5077922;28;20230;-82
2023/04/29 13:03:41;;;;;;;3.88;0.95;;;17.70;99.90;;;;;;5077677;28;20220;-84
2023/04/29 13:06:17;;;;;;;3.97;0.95;;;17.60;99.90;;;;;;5064967;28;20227;-81
2023/04/29 13:08:54;;;;;;;4.20;0.80;;;17.60;99.90;;;;;;5066447;28;20682;-84
2023/04/29 13:11:26;;;;;;;4.15;0.95;;;17.60;99.90;;;;;;5071023;28;20981;-86
2023/04/29 13:13:57;;;;;;;3.05;0.80;;;17.50;99.90;;;;;;5072372;28;20208;-85